sensor_id;sensor_type;location;lat;lon;timestamp;P1;durP1;ratioP1;P2;durP2;ratioP2
72559;SDS011;62987;52.382;9.752;2023-03-11T00:00:18;17.33;;;8.30;;
72559;SDS011;62987;52.382;9.752;2023-03-11T00:02:48;19.45;;;8.02;;
72559;SDS011;62987;52.382;9.752;2023-03-11T00:05:20;15.85;;;7.05;;
72559;SDS011;62987;52.382;9.752;2023-03-11T00:07:49;15.80;;;6.72;;
72559;SDS011;62987;52.382;9.752;2023-03-11T00:10:19;16.20;;;6.50;;
72559;SDS011;62987;52.382;9.752;2023-03-11T00:12:49;14.70;;;5.50;;
72559;SDS011;62987;52.382;9.752;2023-03-11T00:15:17;12.85;;;5.63;;
72559;SDS011;62987;52.382;9.752;2023-03-11T00:17:46;16.30;;;7.03;;
72559;SDS011;62987;52.382;9.752;2023-03-11T00:20:15;17.10;;;6.20;;
72559;SDS011;62987;52.382;9.752;2023-03-11T00:22:46;12.52;;;6.28;;
72559;SDS011;62987;52.382;9.752;2023-03-11T00:25:16;13.25;;;4.97;;
72559;SDS011;62987;52.382;9.752;2023-03-11T00:27:45;10.82;;;4.45;;
72559;SDS011;62987;52.382;9.752;2023-03-11T00:30:14;11.50;;;6.00;;
72559;SDS011;62987;52.382;9.752;2023-03-11T00:32:43;13.25;;;5.18;;
72559;SDS011;62987;52.382;9.752;2023-03-11T00:35:11;24.15;;;10.90;;
72559;SDS011;62987;52.382;9.752;2023-03-11T00:37:40;11.57;;;4.95;;
72559;SDS011;62987;52.382;9.752;2023-03-11T00:40:12;14.60;;;5.05;;
72559;SDS011;62987;52.382;9.752;2023-03-11T00:42:41;12.30;;;5.15;;
72559;SDS011;62987;52.382;9.752;2023-03-11T00:45:10;11.00;;;4.97;;
72559;SDS011;62987;52.382;9.752;2023-03-11T00:47:38;10.20;;;3.60;;
72559;SDS011;62987;52.382;9.752;2023-03-11T00:50:08;12.93;;;4.03;;
72559;SDS011;62987;52.382;9.752;2023-03-11T00:52:40;8.50;;;4.63;;
72559;SDS011;62987;52.382;9.752;2023-03-11T00:55:08;10.45;;;4.47;;
72559;SDS011;62987;52.382;9.752;2023-03-11T00:57:39;10.10;;;4.15;;
72559;SDS011;62987;52.382;9.752;2023-03-11T01:00:08;8.95;;;3.97;;
72559;SDS011;62987;52.382;9.752;2023-03-11T01:02:41;10.40;;;3.85;;
72559;SDS011;62987;52.382;9.752;2023-03-11T01:05:09;11.77;;;4.63;;
72559;SDS011;62987;52.382;9.752;2023-03-11T01:07:39;6.60;;;2.83;;
72559;SDS011;62987;52.382;9.752;2023-03-11T01:10:08;7.95;;;2.95;;
72559;SDS011;62987;52.382;9.752;2023-03-11T01:12:40;7.55;;;3.00;;
72559;SDS011;62987;52.382;9.752;2023-03-11T01:15:09;5.68;;;2.67;;
72559;SDS011;62987;52.382;9.752;2023-03-11T01:17:44;8.57;;;3.03;;
72559;SDS011;62987;52.382;9.752;2023-03-11T01:20:12;4.90;;;2.00;;
72559;SDS011;62987;52.382;9.752;2023-03-11T01:22:40;8.23;;;2.50;;
72559;SDS011;62987;52.382;9.752;2023-03-11T01:25:09;5.18;;;1.90;;
72559;SDS011;62987;52.382;9.752;2023-03-11T01:27:41;5.50;;;1.70;;
72559;SDS011;62987;52.382;9.752;2023-03-11T01:30:12;5.45;;;2.28;;
72559;SDS011;62987;52.382;9.752;2023-03-11T01:32:42;5.00;;;2.13;;
72559;SDS011;62987;52.382;9.752;2023-03-11T01:35:11;6.18;;;2.40;;
72559;SDS011;62987;52.382;9.752;2023-03-11T01:37:40;8.35;;;2.40;;
72559;SDS011;62987;52.382;9.752;2023-03-11T01:40:11;4.15;;;1.38;;
72559;SDS011;62987;52.382;9.752;2023-03-11T01:42:44;6.15;;;2.08;;
72559;SDS011;62987;52.382;9.752;2023-03-11T01:45:24;6.70;;;2.53;;
72559;SDS011;62987;52.382;9.752;2023-03-11T01:48:07;5.43;;;2.05;;
72559;SDS011;62987;52.382;9.752;2023-03-11T01:50:37;5.15;;;1.60;;
72559;SDS011;62987;52.382;9.752;2023-03-11T01:53:09;5.18;;;1.58;;
72559;SDS011;62987;52.382;9.752;2023-03-11T01:55:39;5.05;;;2.03;;
72559;SDS011;62987;52.382;9.752;2023-03-11T01:58:10;5.07;;;1.73;;
72559;SDS011;62987;52.382;9.752;2023-03-11T02:00:41;6.53;;;2.45;;
72559;SDS011;62987;52.382;9.752;2023-03-11T02:03:13;4.85;;;1.88;;
72559;SDS011;62987;52.382;9.752;2023-03-11T02:05:48;5.53;;;2.33;;
72559;SDS011;62987;52.382;9.752;2023-03-11T02:08:17;3.42;;;1.52;;
72559;SDS011;62987;52.382;9.752;2023-03-11T02:10:46;6.88;;;2.00;;
72559;SDS011;62987;52.382;9.752;2023-03-11T02:13:17;4.95;;;1.73;;
72559;SDS011;62987;52.382;9.752;2023-03-11T02:15:46;9.93;;;2.58;;
72559;SDS011;62987;52.382;9.752;2023-03-11T02:18:14;7.13;;;2.80;;
72559;SDS011;62987;52.382;9.752;2023-03-11T02:20:46;9.50;;;2.78;;
72559;SDS011;62987;52.382;9.752;2023-03-11T02:23:20;5.28;;;1.95;;
72559;SDS011;62987;52.382;9.752;2023-03-11T02:25:53;5.75;;;2.50;;
72559;SDS011;62987;52.382;9.752;2023-03-11T02:28:29;6.78;;;2.53;;
72559;SDS011;62987;52.382;9.752;2023-03-11T02:30:58;5.70;;;2.25;;
72559;SDS011;62987;52.382;9.752;2023-03-11T02:33:28;5.07;;;1.85;;
72559;SDS011;62987;52.382;9.752;2023-03-11T02:35:58;6.90;;;2.33;;
72559;SDS011;62987;52.382;9.752;2023-03-11T02:38:27;7.18;;;2.95;;
72559;SDS011;62987;52.382;9.752;2023-03-11T02:40:55;6.03;;;2.65;;
72559;SDS011;62987;52.382;9.752;2023-03-11T02:43:27;6.88;;;2.65;;
72559;SDS011;62987;52.382;9.752;2023-03-11T02:46:02;4.90;;;2.20;;
72559;SDS011;62987;52.382;9.752;2023-03-11T02:48:33;7.13;;;3.00;;
72559;SDS011;62987;52.382;9.752;2023-03-11T02:51:02;5.47;;;1.77;;
72559;SDS011;62987;52.382;9.752;2023-03-11T02:53:30;6.47;;;2.92;;
72559;SDS011;62987;52.382;9.752;2023-03-11T02:56:03;8.70;;;2.20;;
72559;SDS011;62987;52.382;9.752;2023-03-11T02:58:34;5.20;;;2.42;;
72559;SDS011;62987;52.382;9.752;2023-03-11T03:01:02;7.63;;;2.90;;
72559;SDS011;62987;52.382;9.752;2023-03-11T03:03:30;4.70;;;1.92;;
72559;SDS011;62987;52.382;9.752;2023-03-11T03:05:58;4.35;;;1.88;;
72559;SDS011;62987;52.382;9.752;2023-03-11T03:08:26;5.57;;;2.25;;
72559;SDS011;62987;52.382;9.752;2023-03-11T03:10:55;9.23;;;3.55;;
72559;SDS011;62987;52.382;9.752;2023-03-11T03:13:25;6.18;;;3.13;;
72559;SDS011;62987;52.382;9.752;2023-03-11T03:15:55;6.57;;;2.35;;
72559;SDS011;62987;52.382;9.752;2023-03-11T03:18:26;6.40;;;2.08;;
72559;SDS011;62987;52.382;9.752;2023-03-11T03:20:54;4.95;;;1.98;;
72559;SDS011;62987;52.382;9.752;2023-03-11T03:23:22;5.97;;;2.42;;
72559;SDS011;62987;52.382;9.752;2023-03-11T03:25:50;4.50;;;2.45;;
72559;SDS011;62987;52.382;9.752;2023-03-11T03:28:18;4.88;;;2.17;;
72559;SDS011;62987;52.382;9.752;2023-03-11T03:30:46;4.47;;;1.80;;
72559;SDS011;62987;52.382;9.752;2023-03-11T03:33:16;7.00;;;3.65;;
72559;SDS011;62987;52.382;9.752;2023-03-11T03:35:44;4.65;;;2.10;;
72559;SDS011;62987;52.382;9.752;2023-03-11T03:38:22;5.40;;;1.67;;
72559;SDS011;62987;52.382;9.752;2023-03-11T03:40:51;4.93;;;1.95;;
72559;SDS011;62987;52.382;9.752;2023-03-11T03:43:20;3.50;;;1.50;;
72559;SDS011;62987;52.382;9.752;2023-03-11T03:45:54;4.65;;;1.92;;
72559;SDS011;62987;52.382;9.752;2023-03-11T03:48:26;5.47;;;2.20;;
72559;SDS011;62987;52.382;9.752;2023-03-11T03:50:54;6.93;;;2.78;;
72559;SDS011;62987;52.382;9.752;2023-03-11T03:53:22;3.47;;;1.55;;
72559;SDS011;62987;52.382;9.752;2023-03-11T03:55:50;7.07;;;3.00;;
72559;SDS011;62987;52.382;9.752;2023-03-11T03:58:20;7.55;;;2.25;;
72559;SDS011;62987;52.382;9.752;2023-03-11T04:00:48;4.88;;;1.83;;
72559;SDS011;62987;52.382;9.752;2023-03-11T04:03:17;8.38;;;2.50;;
72559;SDS011;62987;52.382;9.752;2023-03-11T04:08:20;4.22;;;1.40;;
72559;SDS011;62987;52.382;9.752;2023-03-11T04:10:54;4.70;;;1.85;;
72559;SDS011;62987;52.382;9.752;2023-03-11T04:13:24;4.57;;;1.77;;
72559;SDS011;62987;52.382;9.752;2023-03-11T04:15:52;5.22;;;1.77;;
72559;SDS011;62987;52.382;9.752;2023-03-11T04:18:20;5.75;;;2.10;;
72559;SDS011;62987;52.382;9.752;2023-03-11T04:20:48;10.55;;;2.10;;
72559;SDS011;62987;52.382;9.752;2023-03-11T04:23:18;5.38;;;1.95;;
72559;SDS011;62987;52.382;9.752;2023-03-11T04:25:46;4.28;;;1.92;;
72559;SDS011;62987;52.382;9.752;2023-03-11T04:28:14;3.67;;;1.52;;
72559;SDS011;62987;52.382;9.752;2023-03-11T04:30:43;6.47;;;1.70;;
72559;SDS011;62987;52.382;9.752;2023-03-11T04:33:11;4.68;;;1.80;;
72559;SDS011;62987;52.382;9.752;2023-03-11T04:35:39;5.60;;;1.20;;
72559;SDS011;62987;52.382;9.752;2023-03-11T04:38:08;10.93;;;3.00;;
72559;SDS011;62987;52.382;9.752;2023-03-11T04:40:40;6.28;;;1.98;;
72559;SDS011;62987;52.382;9.752;2023-03-11T04:43:08;5.78;;;1.52;;
72559;SDS011;62987;52.382;9.752;2023-03-11T04:45:37;3.60;;;1.00;;
72559;SDS011;62987;52.382;9.752;2023-03-11T04:48:06;7.10;;;1.63;;
72559;SDS011;62987;52.382;9.752;2023-03-11T04:50:36;5.93;;;1.40;;
72559;SDS011;62987;52.382;9.752;2023-03-11T04:53:04;3.97;;;1.50;;
72559;SDS011;62987;52.382;9.752;2023-03-11T04:55:32;3.50;;;1.20;;
72559;SDS011;62987;52.382;9.752;2023-03-11T04:58:02;2.85;;;1.20;;
72559;SDS011;62987;52.382;9.752;2023-03-11T05:00:30;2.55;;;1.02;;
72559;SDS011;62987;52.382;9.752;2023-03-11T05:03:06;4.43;;;1.40;;
72559;SDS011;62987;52.382;9.752;2023-03-11T05:05:34;2.63;;;0.90;;
72559;SDS011;62987;52.382;9.752;2023-03-11T05:08:03;3.38;;;1.33;;
72559;SDS011;62987;52.382;9.752;2023-03-11T05:10:31;3.10;;;1.17;;
72559;SDS011;62987;52.382;9.752;2023-03-11T05:13:04;3.88;;;1.52;;
72559;SDS011;62987;52.382;9.752;2023-03-11T05:15:35;2.80;;;1.00;;
72559;SDS011;62987;52.382;9.752;2023-03-11T05:18:04;3.50;;;1.15;;
72559;SDS011;62987;52.382;9.752;2023-03-11T05:20:35;3.72;;;1.23;;
72559;SDS011;62987;52.382;9.752;2023-03-11T05:23:03;3.17;;;1.05;;
72559;SDS011;62987;52.382;9.752;2023-03-11T05:25:33;3.80;;;1.15;;
72559;SDS011;62987;52.382;9.752;2023-03-11T05:28:03;2.92;;;0.80;;
72559;SDS011;62987;52.382;9.752;2023-03-11T05:30:36;2.63;;;0.93;;
72559;SDS011;62987;52.382;9.752;2023-03-11T05:33:04;3.15;;;1.42;;
72559;SDS011;62987;52.382;9.752;2023-03-11T05:35:33;3.00;;;1.08;;
72559;SDS011;62987;52.382;9.752;2023-03-11T05:38:01;3.17;;;1.08;;
72559;SDS011;62987;52.382;9.752;2023-03-11T05:40:29;3.58;;;1.00;;
72559;SDS011;62987;52.382;9.752;2023-03-11T05:42:57;2.30;;;0.98;;
72559;SDS011;62987;52.382;9.752;2023-03-11T05:45:29;5.32;;;0.95;;
72559;SDS011;62987;52.382;9.752;2023-03-11T05:47:59;4.88;;;1.48;;
72559;SDS011;62987;52.382;9.752;2023-03-11T05:50:28;3.17;;;0.88;;
72559;SDS011;62987;52.382;9.752;2023-03-11T05:52:56;3.30;;;1.10;;
72559;SDS011;62987;52.382;9.752;2023-03-11T05:55:27;3.08;;;1.45;;
72559;SDS011;62987;52.382;9.752;2023-03-11T05:57:57;4.40;;;1.45;;
72559;SDS011;62987;52.382;9.752;2023-03-11T06:00:25;2.72;;;1.10;;
72559;SDS011;62987;52.382;9.752;2023-03-11T06:02:58;3.75;;;1.30;;
72559;SDS011;62987;52.382;9.752;2023-03-11T06:05:26;3.70;;;1.73;;
72559;SDS011;62987;52.382;9.752;2023-03-11T06:07:55;2.67;;;1.30;;
72559;SDS011;62987;52.382;9.752;2023-03-11T06:10:23;4.88;;;1.50;;
72559;SDS011;62987;52.382;9.752;2023-03-11T06:12:51;3.45;;;0.90;;
72559;SDS011;62987;52.382;9.752;2023-03-11T06:15:24;3.50;;;1.20;;
72559;SDS011;62987;52.382;9.752;2023-03-11T06:17:52;4.32;;;1.63;;
72559;SDS011;62987;52.382;9.752;2023-03-11T06:20:22;8.82;;;1.77;;
72559;SDS011;62987;52.382;9.752;2023-03-11T06:22:50;3.53;;;1.42;;
72559;SDS011;62987;52.382;9.752;2023-03-11T06:25:21;4.03;;;1.20;;
72559;SDS011;62987;52.382;9.752;2023-03-11T06:27:51;2.83;;;1.95;;
72559;SDS011;62987;52.382;9.752;2023-03-11T06:30:22;2.83;;;1.17;;
72559;SDS011;62987;52.382;9.752;2023-03-11T06:33:00;3.45;;;1.00;;
72559;SDS011;62987;52.382;9.752;2023-03-11T06:35:29;2.65;;;1.13;;
72559;SDS011;62987;52.382;9.752;2023-03-11T06:37:57;3.85;;;1.08;;
72559;SDS011;62987;52.382;9.752;2023-03-11T06:40:25;5.85;;;1.20;;
72559;SDS011;62987;52.382;9.752;2023-03-11T06:42:53;4.53;;;1.38;;
72559;SDS011;62987;52.382;9.752;2023-03-11T06:45:23;4.63;;;1.45;;
72559;SDS011;62987;52.382;9.752;2023-03-11T06:47:55;6.07;;;0.95;;
72559;SDS011;62987;52.382;9.752;2023-03-11T06:50:24;2.40;;;1.10;;
72559;SDS011;62987;52.382;9.752;2023-03-11T06:52:55;3.70;;;1.20;;
72559;SDS011;62987;52.382;9.752;2023-03-11T06:55:23;5.05;;;0.82;;
72559;SDS011;62987;52.382;9.752;2023-03-11T06:57:51;2.13;;;1.15;;
72559;SDS011;62987;52.382;9.752;2023-03-11T07:00:19;4.47;;;1.73;;
72559;SDS011;62987;52.382;9.752;2023-03-11T07:02:53;4.30;;;1.30;;
72559;SDS011;62987;52.382;9.752;2023-03-11T07:05:21;3.42;;;1.30;;
72559;SDS011;62987;52.382;9.752;2023-03-11T07:07:55;3.58;;;1.60;;
72559;SDS011;62987;52.382;9.752;2023-03-11T07:10:24;3.35;;;1.02;;
72559;SDS011;62987;52.382;9.752;2023-03-11T07:12:52;2.72;;;0.95;;
72559;SDS011;62987;52.382;9.752;2023-03-11T07:15:21;4.10;;;1.05;;
72559;SDS011;62987;52.382;9.752;2023-03-11T07:17:49;3.10;;;1.23;;
72559;SDS011;62987;52.382;9.752;2023-03-11T07:20:17;2.22;;;0.80;;
72559;SDS011;62987;52.382;9.752;2023-03-11T07:22:45;8.43;;;1.17;;
72559;SDS011;62987;52.382;9.752;2023-03-11T07:25:15;3.17;;;0.88;;
72559;SDS011;62987;52.382;9.752;2023-03-11T07:27:43;4.13;;;0.98;;
72559;SDS011;62987;52.382;9.752;2023-03-11T07:30:11;4.05;;;1.02;;
72559;SDS011;62987;52.382;9.752;2023-03-11T07:32:40;2.45;;;1.02;;
72559;SDS011;62987;52.382;9.752;2023-03-11T07:35:08;3.30;;;1.60;;
72559;SDS011;62987;52.382;9.752;2023-03-11T07:37:36;4.47;;;1.48;;
72559;SDS011;62987;52.382;9.752;2023-03-11T07:40:04;3.33;;;1.35;;
72559;SDS011;62987;52.382;9.752;2023-03-11T07:42:34;4.43;;;0.70;;
72559;SDS011;62987;52.382;9.752;2023-03-11T07:45:03;2.45;;;0.73;;
72559;SDS011;62987;52.382;9.752;2023-03-11T07:47:32;3.35;;;1.00;;
72559;SDS011;62987;52.382;9.752;2023-03-11T07:50:00;5.47;;;1.17;;
72559;SDS011;62987;52.382;9.752;2023-03-11T07:52:28;2.67;;;1.13;;
72559;SDS011;62987;52.382;9.752;2023-03-11T07:54:57;3.30;;;1.38;;
72559;SDS011;62987;52.382;9.752;2023-03-11T07:57:25;6.03;;;1.30;;
72559;SDS011;62987;52.382;9.752;2023-03-11T07:59:57;4.50;;;1.02;;
72559;SDS011;62987;52.382;9.752;2023-03-11T08:02:26;3.80;;;1.20;;
72559;SDS011;62987;52.382;9.752;2023-03-11T08:04:54;3.63;;;1.15;;
72559;SDS011;62987;52.382;9.752;2023-03-11T08:07:22;3.47;;;1.10;;
72559;SDS011;62987;52.382;9.752;2023-03-11T08:09:50;3.55;;;1.17;;
72559;SDS011;62987;52.382;9.752;2023-03-11T08:12:18;4.90;;;1.13;;
72559;SDS011;62987;52.382;9.752;2023-03-11T08:14:46;2.60;;;0.93;;
72559;SDS011;62987;52.382;9.752;2023-03-11T08:17:16;3.28;;;1.02;;
72559;SDS011;62987;52.382;9.752;2023-03-11T08:19:48;2.90;;;0.88;;
72559;SDS011;62987;52.382;9.752;2023-03-11T08:22:16;2.40;;;1.17;;
72559;SDS011;62987;52.382;9.752;2023-03-11T08:24:44;5.82;;;1.38;;
72559;SDS011;62987;52.382;9.752;2023-03-11T08:27:11;3.97;;;1.30;;
72559;SDS011;62987;52.382;9.752;2023-03-11T08:29:40;4.63;;;1.00;;
72559;SDS011;62987;52.382;9.752;2023-03-11T08:32:08;4.00;;;0.98;;
72559;SDS011;62987;52.382;9.752;2023-03-11T08:34:37;2.03;;;0.85;;
72559;SDS011;62987;52.382;9.752;2023-03-11T08:37:07;2.83;;;0.73;;
72559;SDS011;62987;52.382;9.752;2023-03-11T08:39:35;3.17;;;0.85;;
72559;SDS011;62987;52.382;9.752;2023-03-11T08:42:03;3.78;;;1.00;;
72559;SDS011;62987;52.382;9.752;2023-03-11T08:44:32;3.53;;;1.15;;
72559;SDS011;62987;52.382;9.752;2023-03-11T08:47:00;3.80;;;1.13;;
72559;SDS011;62987;52.382;9.752;2023-03-11T08:49:30;5.28;;;1.48;;
72559;SDS011;62987;52.382;9.752;2023-03-11T08:51:59;3.75;;;0.80;;
72559;SDS011;62987;52.382;9.752;2023-03-11T08:54:28;3.13;;;1.42;;
72559;SDS011;62987;52.382;9.752;2023-03-11T08:56:56;5.20;;;1.20;;
72559;SDS011;62987;52.382;9.752;2023-03-11T08:59:24;3.90;;;0.85;;
72559;SDS011;62987;52.382;9.752;2023-03-11T09:01:52;3.67;;;0.90;;
72559;SDS011;62987;52.382;9.752;2023-03-11T09:04:20;2.30;;;0.93;;
72559;SDS011;62987;52.382;9.752;2023-03-11T09:06:48;3.08;;;0.90;;
72559;SDS011;62987;52.382;9.752;2023-03-11T09:09:19;4.55;;;1.40;;
72559;SDS011;62987;52.382;9.752;2023-03-11T09:11:47;9.73;;;1.90;;
72559;SDS011;62987;52.382;9.752;2023-03-11T09:14:15;2.63;;;1.08;;
72559;SDS011;62987;52.382;9.752;2023-03-11T09:16:43;3.92;;;1.10;;
72559;SDS011;62987;52.382;9.752;2023-03-11T09:19:11;7.05;;;1.23;;
72559;SDS011;62987;52.382;9.752;2023-03-11T09:21:40;2.08;;;0.93;;
72559;SDS011;62987;52.382;9.752;2023-03-11T09:24:08;1.88;;;0.90;;
72559;SDS011;62987;52.382;9.752;2023-03-11T09:26:37;14.07;;;1.55;;
72559;SDS011;62987;52.382;9.752;2023-03-11T09:29:05;2.92;;;1.17;;
72559;SDS011;62987;52.382;9.752;2023-03-11T09:31:33;6.63;;;1.30;;
72559;SDS011;62987;52.382;9.752;2023-03-11T09:34:01;4.95;;;0.80;;
72559;SDS011;62987;52.382;9.752;2023-03-11T09:36:29;5.43;;;1.23;;
72559;SDS011;62987;52.382;9.752;2023-03-11T09:38:57;3.30;;;1.13;;
72559;SDS011;62987;52.382;9.752;2023-03-11T09:41:26;1.55;;;0.85;;
72559;SDS011;62987;52.382;9.752;2023-03-11T09:44:16;2.83;;;0.93;;
72559;SDS011;62987;52.382;9.752;2023-03-11T09:50:01;4.47;;;1.15;;
72559;SDS011;62987;52.382;9.752;2023-03-11T09:52:39;2.42;;;1.00;;
72559;SDS011;62987;52.382;9.752;2023-03-11T09:55:20;2.33;;;0.77;;
72559;SDS011;62987;52.382;9.752;2023-03-11T09:57:57;6.28;;;1.77;;
72559;SDS011;62987;52.382;9.752;2023-03-11T10:00:30;7.07;;;1.02;;
72559;SDS011;62987;52.382;9.752;2023-03-11T10:02:59;2.80;;;1.10;;
72559;SDS011;62987;52.382;9.752;2023-03-11T10:05:29;2.28;;;1.00;;
72559;SDS011;62987;52.382;9.752;2023-03-11T10:08:02;1.90;;;0.90;;
72559;SDS011;62987;52.382;9.752;2023-03-11T10:10:40;2.60;;;1.02;;
72559;SDS011;62987;52.382;9.752;2023-03-11T10:13:15;4.35;;;1.50;;
72559;SDS011;62987;52.382;9.752;2023-03-11T10:15:54;2.17;;;1.00;;
72559;SDS011;62987;52.382;9.752;2023-03-11T10:18:35;1.70;;;0.70;;
72559;SDS011;62987;52.382;9.752;2023-03-11T10:21:19;3.65;;;1.30;;
72559;SDS011;62987;52.382;9.752;2023-03-11T10:24:03;4.00;;;1.60;;
72559;SDS011;62987;52.382;9.752;2023-03-11T10:26:50;3.42;;;1.10;;
72559;SDS011;62987;52.382;9.752;2023-03-11T10:29:22;4.07;;;1.08;;
72559;SDS011;62987;52.382;9.752;2023-03-11T10:31:58;5.82;;;0.77;;
72559;SDS011;62987;52.382;9.752;2023-03-11T10:34:29;3.40;;;1.10;;
72559;SDS011;62987;52.382;9.752;2023-03-11T10:37:04;2.03;;;1.20;;
72559;SDS011;62987;52.382;9.752;2023-03-11T10:39:40;2.47;;;0.90;;
72559;SDS011;62987;52.382;9.752;2023-03-11T10:42:10;2.38;;;1.02;;
72559;SDS011;62987;52.382;9.752;2023-03-11T10:44:40;8.00;;;2.08;;
72559;SDS011;62987;52.382;9.752;2023-03-11T10:47:14;3.08;;;0.82;;
72559;SDS011;62987;52.382;9.752;2023-03-11T10:49:45;4.55;;;1.52;;
72559;SDS011;62987;52.382;9.752;2023-03-11T10:52:13;5.18;;;1.15;;
72559;SDS011;62987;52.382;9.752;2023-03-11T10:54:42;1.73;;;0.90;;
72559;SDS011;62987;52.382;9.752;2023-03-11T10:57:21;3.78;;;0.95;;
72559;SDS011;62987;52.382;9.752;2023-03-11T10:59:54;2.95;;;1.38;;
72559;SDS011;62987;52.382;9.752;2023-03-11T11:02:26;5.43;;;0.93;;
72559;SDS011;62987;52.382;9.752;2023-03-11T11:08:01;4.55;;;1.10;;
72559;SDS011;62987;52.382;9.752;2023-03-11T11:10:31;2.45;;;0.90;;
72559;SDS011;62987;52.382;9.752;2023-03-11T11:13:01;3.42;;;1.42;;
72559;SDS011;62987;52.382;9.752;2023-03-11T11:15:49;3.80;;;1.20;;
72559;SDS011;62987;52.382;9.752;2023-03-11T11:18:22;2.20;;;0.85;;
72559;SDS011;62987;52.382;9.752;2023-03-11T11:20:53;5.72;;;0.90;;
72559;SDS011;62987;52.382;9.752;2023-03-11T11:23:24;2.88;;;1.15;;
72559;SDS011;62987;52.382;9.752;2023-03-11T11:25:55;3.72;;;0.73;;
72559;SDS011;62987;52.382;9.752;2023-03-11T11:28:28;3.75;;;1.17;;
72559;SDS011;62987;52.382;9.752;2023-03-11T11:30:57;3.60;;;1.10;;
72559;SDS011;62987;52.382;9.752;2023-03-11T11:33:28;1.88;;;0.80;;
72559;SDS011;62987;52.382;9.752;2023-03-11T11:35:59;4.65;;;1.23;;
72559;SDS011;62987;52.382;9.752;2023-03-11T11:38:30;3.65;;;0.90;;
72559;SDS011;62987;52.382;9.752;2023-03-11T11:41:00;4.70;;;1.00;;
72559;SDS011;62987;52.382;9.752;2023-03-11T11:43:41;4.40;;;1.10;;
72559;SDS011;62987;52.382;9.752;2023-03-11T11:46:17;12.77;;;2.38;;
72559;SDS011;62987;52.382;9.752;2023-03-11T11:48:51;2.42;;;0.95;;
72559;SDS011;62987;52.382;9.752;2023-03-11T11:51:31;3.63;;;1.23;;
72559;SDS011;62987;52.382;9.752;2023-03-11T11:54:03;2.38;;;1.10;;
72559;SDS011;62987;52.382;9.752;2023-03-11T11:56:40;2.08;;;0.77;;
72559;SDS011;62987;52.382;9.752;2023-03-11T11:59:12;3.88;;;1.17;;
72559;SDS011;62987;52.382;9.752;2023-03-11T12:01:47;6.28;;;1.42;;
72559;SDS011;62987;52.382;9.752;2023-03-11T12:07:31;2.28;;;0.80;;
72559;SDS011;62987;52.382;9.752;2023-03-11T12:10:15;6.07;;;1.70;;
72559;SDS011;62987;52.382;9.752;2023-03-11T12:12:53;3.90;;;1.70;;
72559;SDS011;62987;52.382;9.752;2023-03-11T12:15:39;4.40;;;1.00;;
72559;SDS011;62987;52.382;9.752;2023-03-11T12:18:14;2.72;;;1.10;;
72559;SDS011;62987;52.382;9.752;2023-03-11T12:20:50;5.07;;;0.95;;
72559;SDS011;62987;52.382;9.752;2023-03-11T12:23:28;3.17;;;1.17;;
72559;SDS011;62987;52.382;9.752;2023-03-11T12:26:09;2.83;;;1.02;;
72559;SDS011;62987;52.382;9.752;2023-03-11T12:28:44;3.70;;;1.23;;
72559;SDS011;62987;52.382;9.752;2023-03-11T12:31:16;1.35;;;0.63;;
72559;SDS011;62987;52.382;9.752;2023-03-11T12:33:46;4.72;;;1.60;;
72559;SDS011;62987;52.382;9.752;2023-03-11T12:36:22;3.03;;;1.38;;
72559;SDS011;62987;52.382;9.752;2023-03-11T12:38:55;4.00;;;1.33;;
72559;SDS011;62987;52.382;9.752;2023-03-11T12:41:27;5.40;;;1.45;;
72559;SDS011;62987;52.382;9.752;2023-03-11T12:44:02;4.32;;;1.00;;
72559;SDS011;62987;52.382;9.752;2023-03-11T12:49:40;4.53;;;1.20;;
72559;SDS011;62987;52.382;9.752;2023-03-11T12:52:18;5.15;;;0.90;;
72559;SDS011;62987;52.382;9.752;2023-03-11T12:57:52;5.43;;;1.38;;
72559;SDS011;62987;52.382;9.752;2023-03-11T13:00:31;1.67;;;0.80;;
72559;SDS011;62987;52.382;9.752;2023-03-11T13:03:15;7.50;;;1.27;;
72559;SDS011;62987;52.382;9.752;2023-03-11T13:06:04;2.28;;;0.90;;
72559;SDS011;62987;52.382;9.752;2023-03-11T13:08:48;2.75;;;0.98;;
72559;SDS011;62987;52.382;9.752;2023-03-11T13:11:38;3.65;;;1.05;;
72559;SDS011;62987;52.382;9.752;2023-03-11T13:19:58;7.00;;;1.73;;
72559;SDS011;62987;52.382;9.752;2023-03-11T13:22:42;4.65;;;1.30;;
72559;SDS011;62987;52.382;9.752;2023-03-11T13:25:31;5.47;;;1.05;;
72559;SDS011;62987;52.382;9.752;2023-03-11T13:31:19;3.50;;;1.08;;
72559;SDS011;62987;52.382;9.752;2023-03-11T13:34:00;2.95;;;1.00;;
72559;SDS011;62987;52.382;9.752;2023-03-11T13:36:48;7.30;;;1.75;;
72559;SDS011;62987;52.382;9.752;2023-03-11T13:39:38;7.88;;;1.20;;
72559;SDS011;62987;52.382;9.752;2023-03-11T13:42:28;4.45;;;1.23;;
72559;SDS011;62987;52.382;9.752;2023-03-11T13:44:59;5.53;;;1.17;;
72559;SDS011;62987;52.382;9.752;2023-03-11T13:47:30;3.88;;;1.30;;
72559;SDS011;62987;52.382;9.752;2023-03-11T13:50:07;3.80;;;1.50;;
72559;SDS011;62987;52.382;9.752;2023-03-11T13:52:42;3.47;;;1.10;;
72559;SDS011;62987;52.382;9.752;2023-03-11T13:55:15;3.13;;;1.13;;
72559;SDS011;62987;52.382;9.752;2023-03-11T13:57:51;4.75;;;0.90;;
72559;SDS011;62987;52.382;9.752;2023-03-11T14:00:20;3.97;;;1.20;;
72559;SDS011;62987;52.382;9.752;2023-03-11T14:02:50;2.35;;;0.80;;
72559;SDS011;62987;52.382;9.752;2023-03-11T14:05:22;2.47;;;0.68;;
72559;SDS011;62987;52.382;9.752;2023-03-11T14:07:52;2.00;;;0.80;;
72559;SDS011;62987;52.382;9.752;2023-03-11T14:10:25;3.63;;;0.80;;
72559;SDS011;62987;52.382;9.752;2023-03-11T14:13:11;6.22;;;0.90;;
72559;SDS011;62987;52.382;9.752;2023-03-11T14:15:44;1.58;;;0.75;;
72559;SDS011;62987;52.382;9.752;2023-03-11T14:18:24;4.88;;;0.80;;
72559;SDS011;62987;52.382;9.752;2023-03-11T14:20:58;3.17;;;0.80;;
72559;SDS011;62987;52.382;9.752;2023-03-11T14:23:31;2.92;;;1.08;;
72559;SDS011;62987;52.382;9.752;2023-03-11T14:26:04;4.22;;;0.85;;
72559;SDS011;62987;52.382;9.752;2023-03-11T14:28:39;3.05;;;0.90;;
72559;SDS011;62987;52.382;9.752;2023-03-11T14:31:24;2.15;;;0.70;;
72559;SDS011;62987;52.382;9.752;2023-03-11T14:33:57;3.25;;;1.05;;
72559;SDS011;62987;52.382;9.752;2023-03-11T14:36:30;6.40;;;0.90;;
72559;SDS011;62987;52.382;9.752;2023-03-11T14:39:20;1.55;;;0.90;;
72559;SDS011;62987;52.382;9.752;2023-03-11T14:41:57;4.88;;;1.50;;
72559;SDS011;62987;52.382;9.752;2023-03-11T14:44:30;4.85;;;1.63;;
72559;SDS011;62987;52.382;9.752;2023-03-11T14:47:03;9.10;;;2.70;;
72559;SDS011;62987;52.382;9.752;2023-03-11T14:49:35;6.43;;;1.48;;
72559;SDS011;62987;52.382;9.752;2023-03-11T14:52:06;4.60;;;1.92;;
72559;SDS011;62987;52.382;9.752;2023-03-11T14:54:37;1.80;;;0.70;;
72559;SDS011;62987;52.382;9.752;2023-03-11T14:57:07;2.40;;;1.13;;
72559;SDS011;62987;52.382;9.752;2023-03-11T14:59:44;3.80;;;1.15;;
72559;SDS011;62987;52.382;9.752;2023-03-11T15:05:10;3.05;;;0.90;;
72559;SDS011;62987;52.382;9.752;2023-03-11T15:07:45;4.05;;;0.63;;
72559;SDS011;62987;52.382;9.752;2023-03-11T15:10:16;2.17;;;1.00;;
72559;SDS011;62987;52.382;9.752;2023-03-11T15:12:44;3.80;;;0.65;;
72559;SDS011;62987;52.382;9.752;2023-03-11T15:15:26;1.52;;;0.70;;
72559;SDS011;62987;52.382;9.752;2023-03-11T15:17:57;1.90;;;0.95;;
72559;SDS011;62987;52.382;9.752;2023-03-11T15:20:27;6.80;;;1.20;;
72559;SDS011;62987;52.382;9.752;2023-03-11T15:22:57;1.33;;;0.60;;
72559;SDS011;62987;52.382;9.752;2023-03-11T15:25:36;2.80;;;0.60;;
72559;SDS011;62987;52.382;9.752;2023-03-11T15:28:13;3.90;;;0.80;;
72559;SDS011;62987;52.382;9.752;2023-03-11T15:31:25;3.85;;;0.70;;
72559;SDS011;62987;52.382;9.752;2023-03-11T15:39:47;1.10;;;0.40;;
72559;SDS011;62987;52.382;9.752;2023-03-11T15:42:31;2.47;;;0.60;;
72559;SDS011;62987;52.382;9.752;2023-03-11T15:45:00;3.58;;;1.08;;
72559;SDS011;62987;52.382;9.752;2023-03-11T15:47:38;2.80;;;1.00;;